sensor_id;sensor_type;location;lat;lon;timestamp;temperature;humidity
24420;DHT22;12599;52.426;13.330;2022-09-13T00:00:42;13.60;99.90
24420;DHT22;12599;52.426;13.330;2022-09-13T00:03:09;13.60;99.90
24420;DHT22;12599;52.426;13.330;2022-09-13T00:05:36;13.60;99.90
24420;DHT22;12599;52.426;13.330;2022-09-13T00:08:02;13.80;99.90
24420;DHT22;12599;52.426;13.330;2022-09-13T00:10:29;13.70;99.90
24420;DHT22;12599;52.426;13.330;2022-09-13T00:12:55;13.70;99.90
24420;DHT22;12599;52.426;13.330;2022-09-13T00:15:21;13.60;99.90
24420;DHT22;12599;52.426;13.330;2022-09-13T00:17:47;13.70;99.90
24420;DHT22;12599;52.426;13.330;2022-09-13T00:20:12;13.70;99.90
24420;DHT22;12599;52.426;13.330;2022-09-13T00:22:38;13.80;99.90
24420;DHT22;12599;52.426;13.330;2022-09-13T00:25:05;14.50;99.90
24420;DHT22;12599;52.426;13.330;2022-09-13T00:27:32;13.80;99.90
24420;DHT22;12599;52.426;13.330;2022-09-13T00:29:58;13.80;99.90
24420;DHT22;12599;52.426;13.330;2022-09-13T00:32:24;13.90;99.90
24420;DHT22;12599;52.426;13.330;2022-09-13T00:34:50;14.80;99.90
24420;DHT22;12599;52.426;13.330;2022-09-13T00:37:15;13.80;99.90
24420;DHT22;12599;52.426;13.330;2022-09-13T00:39:41;16.50;99.90
24420;DHT22;12599;52.426;13.330;2022-09-13T00:42:12;14.60;99.90
24420;DHT22;12599;52.426;13.330;2022-09-13T00:47:46;13.50;99.90
24420;DHT22;12599;52.426;13.330;2022-09-13T00:50:21;13.50;99.90
24420;DHT22;12599;52.426;13.330;2022-09-13T00:53:00;13.50;99.90
24420;DHT22;12599;52.426;13.330;2022-09-13T00:55:47;13.40;99.90
24420;DHT22;12599;52.426;13.330;2022-09-13T00:58:21;13.50;99.90
24420;DHT22;12599;52.426;13.330;2022-09-13T01:00:50;13.60;99.90
24420;DHT22;12599;52.426;13.330;2022-09-13T01:03:19;13.50;99.90
24420;DHT22;12599;52.426;13.330;2022-09-13T01:05:49;13.50;99.90
24420;DHT22;12599;52.426;13.330;2022-09-13T01:08:16;13.60;99.90
24420;DHT22;12599;52.426;13.330;2022-09-13T01:10:48;13.90;99.90
24420;DHT22;12599;52.426;13.330;2022-09-13T01:13:28;13.40;99.90
24420;DHT22;12599;52.426;13.330;2022-09-13T01:15:56;13.30;99.90
24420;DHT22;12599;52.426;13.330;2022-09-13T01:18:22;13.40;99.90
24420;DHT22;12599;52.426;13.330;2022-09-13T01:20:59;13.50;99.90
24420;DHT22;12599;52.426;13.330;2022-09-13T01:26:19;13.40;99.90
24420;DHT22;12599;52.426;13.330;2022-09-13T01:40:22;13.30;99.90
24420;DHT22;12599;52.426;13.330;2022-09-13T01:48:19;13.60;99.90
24420;DHT22;12599;52.426;13.330;2022-09-13T01:50:57;13.60;99.90
24420;DHT22;12599;52.426;13.330;2022-09-13T01:53:33;13.50;99.90
24420;DHT22;12599;52.426;13.330;2022-09-13T01:56:22;13.40;99.90
24420;DHT22;12599;52.426;13.330;2022-09-13T01:59:00;13.30;99.90
24420;DHT22;12599;52.426;13.330;2022-09-13T02:03:59;13.40;99.90
24420;DHT22;12599;52.426;13.330;2022-09-13T02:06:49;14.20;99.90
24420;DHT22;12599;52.426;13.330;2022-09-13T02:09:19;13.50;99.90
24420;DHT22;12599;52.426;13.330;2022-09-13T02:11:49;14.50;99.90
24420;DHT22;12599;52.426;13.330;2022-09-13T02:14:21;13.40;99.90
24420;DHT22;12599;52.426;13.330;2022-09-13T02:16:56;13.40;99.90
24420;DHT22;12599;52.426;13.330;2022-09-13T02:21:58;13.90;99.90
24420;DHT22;12599;52.426;13.330;2022-09-13T02:24:31;13.10;99.90
24420;DHT22;12599;52.426;13.330;2022-09-13T02:27:05;13.10;99.90
24420;DHT22;12599;52.426;13.330;2022-09-13T02:29:34;13.10;99.90
24420;DHT22;12599;52.426;13.330;2022-09-13T02:32:09;13.20;99.90
24420;DHT22;12599;52.426;13.330;2022-09-13T02:35:00;13.20;99.90
24420;DHT22;12599;52.426;13.330;2022-09-13T02:37:30;14.20;99.90
24420;DHT22;12599;52.426;13.330;2022-09-13T02:40:05;13.10;99.90
24420;DHT22;12599;52.426;13.330;2022-09-13T02:42:46;13.00;99.90
24420;DHT22;12599;52.426;13.330;2022-09-13T02:45:13;13.10;99.90
24420;DHT22;12599;52.426;13.330;2022-09-13T02:47:43;13.10;99.90
24420;DHT22;12599;52.426;13.330;2022-09-13T02:53:11;12.90;99.90
24420;DHT22;12599;52.426;13.330;2022-09-13T02:58:21;13.00;99.90
24420;DHT22;12599;52.426;13.330;2022-09-13T03:00:49;13.10;99.90
24420;DHT22;12599;52.426;13.330;2022-09-13T03:03:15;13.40;99.90
24420;DHT22;12599;52.426;13.330;2022-09-13T03:05:41;13.10;99.90
24420;DHT22;12599;52.426;13.330;2022-09-13T03:08:09;13.10;99.90
24420;DHT22;12599;52.426;13.330;2022-09-13T03:13:42;13.20;99.90
24420;DHT22;12599;52.426;13.330;2022-09-13T03:16:59;13.20;99.90
24420;DHT22;12599;52.426;13.330;2022-09-13T03:19:38;13.20;99.90
24420;DHT22;12599;52.426;13.330;2022-09-13T03:28:28;13.20;99.90
24420;DHT22;12599;52.426;13.330;2022-09-13T03:30:29;13.20;99.90
24420;DHT22;12599;52.426;13.330;2022-09-13T03:33:22;13.30;99.90
24420;DHT22;12599;52.426;13.330;2022-09-13T03:35:56;13.30;99.90
24420;DHT22;12599;52.426;13.330;2022-09-13T03:38:29;13.30;99.90
24420;DHT22;12599;52.426;13.330;2022-09-13T03:41:06;13.30;99.90
24420;DHT22;12599;52.426;13.330;2022-09-13T03:46:14;13.20;99.90
24420;DHT22;12599;52.426;13.330;2022-09-13T03:48:40;14.70;99.90
24420;DHT22;12599;52.426;13.330;2022-09-13T03:51:07;13.40;99.90
24420;DHT22;12599;52.426;13.330;2022-09-13T03:53:38;13.30;99.90
24420;DHT22;12599;52.426;13.330;2022-09-13T03:56:13;10.90;99.90
24420;DHT22;12599;52.426;13.330;2022-09-13T03:58:39;13.10;99.90
24420;DHT22;12599;52.426;13.330;2022-09-13T04:01:04;14.00;99.90
24420;DHT22;12599;52.426;13.330;2022-09-13T04:03:30;13.10;99.90
24420;DHT22;12599;52.426;13.330;2022-09-13T04:05:56;13.00;99.90
24420;DHT22;12599;52.426;13.330;2022-09-13T04:08:21;13.00;99.90
24420;DHT22;12599;52.426;13.330;2022-09-13T04:10:49;12.90;99.90
24420;DHT22;12599;52.426;13.330;2022-09-13T04:13:15;13.70;99.90
24420;DHT22;12599;52.426;13.330;2022-09-13T04:15:41;13.10;99.90
24420;DHT22;12599;52.426;13.330;2022-09-13T04:18:07;13.20;99.90
24420;DHT22;12599;52.426;13.330;2022-09-13T04:20:33;13.10;99.90
24420;DHT22;12599;52.426;13.330;2022-09-13T04:23:00;13.10;99.90
24420;DHT22;12599;52.426;13.330;2022-09-13T04:25:26;13.10;99.90
24420;DHT22;12599;52.426;13.330;2022-09-13T04:27:55;13.00;99.90
24420;DHT22;12599;52.426;13.330;2022-09-13T04:30:21;14.60;99.90
24420;DHT22;12599;52.426;13.330;2022-09-13T04:32:48;13.10;99.90
24420;DHT22;12599;52.426;13.330;2022-09-13T04:35:14;13.20;99.90
24420;DHT22;12599;52.426;13.330;2022-09-13T04:37:44;13.20;99.90
24420;DHT22;12599;52.426;13.330;2022-09-13T04:40:11;13.30;99.90
24420;DHT22;12599;52.426;13.330;2022-09-13T04:42:36;13.30;99.90
24420;DHT22;12599;52.426;13.330;2022-09-13T04:45:02;13.30;99.90
24420;DHT22;12599;52.426;13.330;2022-09-13T04:47:28;13.20;99.90
24420;DHT22;12599;52.426;13.330;2022-09-13T04:49:53;13.20;99.90
24420;DHT22;12599;52.426;13.330;2022-09-13T04:52:19;13.10;99.90
24420;DHT22;12599;52.426;13.330;2022-09-13T04:54:45;13.10;99.90
24420;DHT22;12599;52.426;13.330;2022-09-13T04:57:13;13.20;99.90
24420;DHT22;12599;52.426;13.330;2022-09-13T04:59:39;13.30;99.90
24420;DHT22;12599;52.426;13.330;2022-09-13T05:02:05;13.40;99.90
24420;DHT22;12599;52.426;13.330;2022-09-13T05:04:30;13.50;99.90
24420;DHT22;12599;52.426;13.330;2022-09-13T05:06:56;13.50;99.90
24420;DHT22;12599;52.426;13.330;2022-09-13T05:09:23;13.80;99.90
24420;DHT22;12599;52.426;13.330;2022-09-13T05:11:48;13.50;99.90
24420;DHT22;12599;52.426;13.330;2022-09-13T05:14:14;13.50;99.90
24420;DHT22;12599;52.426;13.330;2022-09-13T05:16:40;13.60;99.90
24420;DHT22;12599;52.426;13.330;2022-09-13T05:19:05;13.60;99.90
24420;DHT22;12599;52.426;13.330;2022-09-13T05:21:31;13.70;99.90
24420;DHT22;12599;52.426;13.330;2022-09-13T05:23:57;13.70;99.90
24420;DHT22;12599;52.426;13.330;2022-09-13T05:26:24;13.80;99.90
24420;DHT22;12599;52.426;13.330;2022-09-13T05:28:56;13.80;99.90
24420;DHT22;12599;52.426;13.330;2022-09-13T05:31:24;13.90;99.90
24420;DHT22;12599;52.426;13.330;2022-09-13T05:33:56;14.00;99.90
24420;DHT22;12599;52.426;13.330;2022-09-13T05:36:23;14.20;99.90
24420;DHT22;12599;52.426;13.330;2022-09-13T05:38:49;14.20;99.90
24420;DHT22;12599;52.426;13.330;2022-09-13T05:41:15;14.30;99.90
24420;DHT22;12599;52.426;13.330;2022-09-13T05:43:41;14.40;99.90
24420;DHT22;12599;52.426;13.330;2022-09-13T05:46:18;14.40;99.90
24420;DHT22;12599;52.426;13.330;2022-09-13T05:48:45;14.50;99.90
24420;DHT22;12599;52.426;13.330;2022-09-13T05:51:18;14.50;99.90
24420;DHT22;12599;52.426;13.330;2022-09-13T05:53:46;14.50;99.90
24420;DHT22;12599;52.426;13.330;2022-09-13T05:56:21;14.50;99.90
24420;DHT22;12599;52.426;13.330;2022-09-13T05:58:48;14.50;99.90
24420;DHT22;12599;52.426;13.330;2022-09-13T06:01:16;14.60;99.90
24420;DHT22;12599;52.426;13.330;2022-09-13T06:03:42;14.50;99.90
24420;DHT22;12599;52.426;13.330;2022-09-13T06:06:09;14.60;99.90
24420;DHT22;12599;52.426;13.330;2022-09-13T06:08:35;14.50;99.90
24420;DHT22;12599;52.426;13.330;2022-09-13T06:11:06;14.40;99.90
24420;DHT22;12599;52.426;13.330;2022-09-13T06:13:32;14.40;99.90
24420;DHT22;12599;52.426;13.330;2022-09-13T06:15:59;14.40;99.90
24420;DHT22;12599;52.426;13.330;2022-09-13T06:18:26;14.50;99.90
24420;DHT22;12599;52.426;13.330;2022-09-13T06:20:58;14.40;99.90
24420;DHT22;12599;52.426;13.330;2022-09-13T06:23:25;14.40;99.90
24420;DHT22;12599;52.426;13.330;2022-09-13T06:26:08;14.40;99.90
24420;DHT22;12599;52.426;13.330;2022-09-13T06:28:35;14.40;99.90
24420;DHT22;12599;52.426;13.330;2022-09-13T06:31:12;14.40;99.90
24420;DHT22;12599;52.426;13.330;2022-09-13T06:33:40;14.40;99.90
24420;DHT22;12599;52.426;13.330;2022-09-13T06:36:17;14.40;99.90
24420;DHT22;12599;52.426;13.330;2022-09-13T06:38:43;14.40;99.90
24420;DHT22;12599;52.426;13.330;2022-09-13T06:41:15;14.40;99.90
24420;DHT22;12599;52.426;13.330;2022-09-13T06:43:43;14.40;99.90
24420;DHT22;12599;52.426;13.330;2022-09-13T06:46:10;14.40;99.90
24420;DHT22;12599;52.426;13.330;2022-09-13T06:48:39;14.50;99.90
24420;DHT22;12599;52.426;13.330;2022-09-13T06:51:07;14.50;99.90
24420;DHT22;12599;52.426;13.330;2022-09-13T06:53:34;14.50;99.90
24420;DHT22;12599;52.426;13.330;2022-09-13T06:56:09;14.50;99.90
24420;DHT22;12599;52.426;13.330;2022-09-13T06:58:35;14.60;99.90
24420;DHT22;12599;52.426;13.330;2022-09-13T07:03:46;14.70;99.90
24420;DHT22;12599;52.426;13.330;2022-09-13T07:06:14;14.90;99.90
24420;DHT22;12599;52.426;13.330;2022-09-13T07:08:41;14.90;99.90
24420;DHT22;12599;52.426;13.330;2022-09-13T07:11:08;15.10;99.90
24420;DHT22;12599;52.426;13.330;2022-09-13T07:13:34;15.20;99.90
24420;DHT22;12599;52.426;13.330;2022-09-13T07:16:08;15.30;99.90
24420;DHT22;12599;52.426;13.330;2022-09-13T07:18:34;15.40;99.90
24420;DHT22;12599;52.426;13.330;2022-09-13T07:21:05;15.40;99.90
24420;DHT22;12599;52.426;13.330;2022-09-13T07:23:32;15.40;99.90
24420;DHT22;12599;52.426;13.330;2022-09-13T07:25:59;15.50;99.90
24420;DHT22;12599;52.426;13.330;2022-09-13T07:28:43;15.50;99.90
24420;DHT22;12599;52.426;13.330;2022-09-13T07:31:18;15.50;99.90
24420;DHT22;12599;52.426;13.330;2022-09-13T07:33:46;15.50;99.90
24420;DHT22;12599;52.426;13.330;2022-09-13T07:36:12;15.50;99.90
24420;DHT22;12599;52.426;13.330;2022-09-13T07:38:42;15.60;99.90
24420;DHT22;12599;52.426;13.330;2022-09-13T07:41:12;15.70;99.90
24420;DHT22;12599;52.426;13.330;2022-09-13T07:43:38;15.70;99.90
24420;DHT22;12599;52.426;13.330;2022-09-13T07:46:05;15.70;99.90
24420;DHT22;12599;52.426;13.330;2022-09-13T07:48:33;15.90;99.90
24420;DHT22;12599;52.426;13.330;2022-09-13T07:51:04;15.90;99.90
24420;DHT22;12599;52.426;13.330;2022-09-13T07:53:31;16.00;99.90
24420;DHT22;12599;52.426;13.330;2022-09-13T07:56:04;16.10;99.90
24420;DHT22;12599;52.426;13.330;2022-09-13T07:58:31;16.10;99.90
24420;DHT22;12599;52.426;13.330;2022-09-13T08:01:18;16.20;99.90
24420;DHT22;12599;52.426;13.330;2022-09-13T08:03:53;16.30;99.90
24420;DHT22;12599;52.426;13.330;2022-09-13T08:06:19;16.40;99.90
24420;DHT22;12599;52.426;13.330;2022-09-13T08:08:44;16.30;99.90
24420;DHT22;12599;52.426;13.330;2022-09-13T08:11:18;16.40;99.90
24420;DHT22;12599;52.426;13.330;2022-09-13T08:13:45;16.50;99.90
24420;DHT22;12599;52.426;13.330;2022-09-13T08:16:11;16.60;99.90
24420;DHT22;12599;52.426;13.330;2022-09-13T08:18:42;16.70;99.90
24420;DHT22;12599;52.426;13.330;2022-09-13T08:21:08;16.70;99.90
24420;DHT22;12599;52.426;13.330;2022-09-13T08:23:34;16.70;99.90
24420;DHT22;12599;52.426;13.330;2022-09-13T08:26:00;16.70;99.90
24420;DHT22;12599;52.426;13.330;2022-09-13T08:28:27;16.70;99.90
24420;DHT22;12599;52.426;13.330;2022-09-13T08:30:52;16.80;99.90
24420;DHT22;12599;52.426;13.330;2022-09-13T08:33:18;16.80;99.90
24420;DHT22;12599;52.426;13.330;2022-09-13T08:35:53;16.80;99.90
24420;DHT22;12599;52.426;13.330;2022-09-13T08:38:19;16.80;99.90
24420;DHT22;12599;52.426;13.330;2022-09-13T08:40:54;16.80;99.90
24420;DHT22;12599;52.426;13.330;2022-09-13T08:43:40;16.80;99.90
24420;DHT22;12599;52.426;13.330;2022-09-13T08:48:51;17.00;99.90
24420;DHT22;12599;52.426;13.330;2022-09-13T08:51:40;17.00;99.90
24420;DHT22;12599;52.426;13.330;2022-09-13T08:54:11;17.10;99.90
24420;DHT22;12599;52.426;13.330;2022-09-13T09:04:47;17.60;99.90
24420;DHT22;12599;52.426;13.330;2022-09-13T09:07:20;18.20;99.90
24420;DHT22;12599;52.426;13.330;2022-09-13T09:09:55;17.80;99.90
24420;DHT22;12599;52.426;13.330;2022-09-13T09:12:27;17.80;99.90
24420;DHT22;12599;52.426;13.330;2022-09-13T09:15:28;17.90;99.90
24420;DHT22;12599;52.426;13.330;2022-09-13T09:18:12;17.90;99.90
24420;DHT22;12599;52.426;13.330;2022-09-13T09:23:21;16.90;99.90
24420;DHT22;12599;52.426;13.330;2022-09-13T09:25:50;18.30;99.90
24420;DHT22;12599;52.426;13.330;2022-09-13T09:28:17;18.30;99.90
24420;DHT22;12599;52.426;13.330;2022-09-13T09:31:03;18.50;99.90
24420;DHT22;12599;52.426;13.330;2022-09-13T09:36:22;18.30;99.90
24420;DHT22;12599;52.426;13.330;2022-09-13T09:38:50;18.60;99.90
24420;DHT22;12599;52.426;13.330;2022-09-13T09:41:26;18.80;99.90
24420;DHT22;12599;52.426;13.330;2022-09-13T09:46:39;18.60;99.90
24420;DHT22;12599;52.426;13.330;2022-09-13T09:49:15;19.00;99.90
24420;DHT22;12599;52.426;13.330;2022-09-13T09:52:03;19.10;99.90
24420;DHT22;12599;52.426;13.330;2022-09-13T09:54:32;19.20;99.90
24420;DHT22;12599;52.426;13.330;2022-09-13T09:56:59;19.30;99.90
24420;DHT22;12599;52.426;13.330;2022-09-13T09:59:27;19.30;99.90
24420;DHT22;12599;52.426;13.330;2022-09-13T10:01:54;19.30;99.90
24420;DHT22;12599;52.426;13.330;2022-09-13T10:04:23;19.30;99.90
24420;DHT22;12599;52.426;13.330;2022-09-13T10:06:50;19.40;99.90
24420;DHT22;12599;52.426;13.330;2022-09-13T10:09:31;19.50;99.90
24420;DHT22;12599;52.426;13.330;2022-09-13T10:11:58;19.50;99.90
24420;DHT22;12599;52.426;13.330;2022-09-13T10:17:19;19.50;99.90
24420;DHT22;12599;52.426;13.330;2022-09-13T10:19:59;19.70;99.90
24420;DHT22;12599;52.426;13.330;2022-09-13T10:22:27;19.70;99.90
24420;DHT22;12599;52.426;13.330;2022-09-13T10:24:53;19.90;99.90
24420;DHT22;12599;52.426;13.330;2022-09-13T10:29:50;19.90;99.90
24420;DHT22;12599;52.426;13.330;2022-09-13T10:32:16;20.10;99.90
24420;DHT22;12599;52.426;13.330;2022-09-13T10:34:45;20.10;99.90
24420;DHT22;12599;52.426;13.330;2022-09-13T10:37:25;20.20;99.90
24420;DHT22;12599;52.426;13.330;2022-09-13T10:40:05;20.10;99.90
24420;DHT22;12599;52.426;13.330;2022-09-13T10:42:33;20.20;99.90
24420;DHT22;12599;52.426;13.330;2022-09-13T10:45:06;20.20;99.90
24420;DHT22;12599;52.426;13.330;2022-09-13T10:47:43;20.30;99.90
24420;DHT22;12599;52.426;13.330;2022-09-13T10:52:52;20.30;99.90
24420;DHT22;12599;52.426;13.330;2022-09-13T10:57:45;20.40;99.90
24420;DHT22;12599;52.426;13.330;2022-09-13T11:00:14;20.30;99.90
24420;DHT22;12599;52.426;13.330;2022-09-13T11:08:33;20.10;99.90
24420;DHT22;12599;52.426;13.330;2022-09-13T11:22:50;19.30;99.90
24420;DHT22;12599;52.426;13.330;2022-09-13T11:33:49;18.70;99.90
24420;DHT22;12599;52.426;13.330;2022-09-13T11:36:39;18.60;99.90
24420;DHT22;12599;52.426;13.330;2022-09-13T11:47:52;18.20;99.90
24420;DHT22;12599;52.426;13.330;2022-09-13T11:55:43;18.30;99.90
24420;DHT22;12599;52.426;13.330;2022-09-13T11:58:14;20.20;99.90
24420;DHT22;12599;52.426;13.330;2022-09-13T12:00:53;18.40;99.90
24420;DHT22;12599;52.426;13.330;2022-09-13T12:03:30;18.40;99.90
24420;DHT22;12599;52.426;13.330;2022-09-13T12:06:04;18.40;99.90
24420;DHT22;12599;52.426;13.330;2022-09-13T12:08:35;18.40;99.90
24420;DHT22;12599;52.426;13.330;2022-09-13T12:11:24;18.40;99.90
24420;DHT22;12599;52.426;13.330;2022-09-13T12:14:04;18.50;99.90
24420;DHT22;12599;52.426;13.330;2022-09-13T12:16:42;18.40;99.90
24420;DHT22;12599;52.426;13.330;2022-09-13T12:19:20;18.40;99.90
24420;DHT22;12599;52.426;13.330;2022-09-13T12:21:48;18.40;99.90
24420;DHT22;12599;52.426;13.330;2022-09-13T12:24:36;18.40;99.90
24420;DHT22;12599;52.426;13.330;2022-09-13T12:30:08;18.60;99.90
24420;DHT22;12599;52.426;13.330;2022-09-13T12:32:38;18.50;99.90
24420;DHT22;12599;52.426;13.330;2022-09-13T12:35:07;18.60;99.90
24420;DHT22;12599;52.426;13.330;2022-09-13T12:49:40;18.50;99.90
24420;DHT22;12599;52.426;13.330;2022-09-13T12:57:53;19.00;99.90
24420;DHT22;12599;52.426;13.330;2022-09-13T13:00:24;19.00;99.90
24420;DHT22;12599;52.426;13.330;2022-09-13T13:05:32;19.00;99.90
24420;DHT22;12599;52.426;13.330;2022-09-13T13:08:23;19.10;99.90
24420;DHT22;12599;52.426;13.330;2022-09-13T13:11:10;19.10;99.90
24420;DHT22;12599;52.426;13.330;2022-09-13T13:13:45;19.10;99.90
24420;DHT22;12599;52.426;13.330;2022-09-13T13:16:27;19.00;99.90
24420;DHT22;12599;52.426;13.330;2022-09-13T13:18:56;19.10;99.90
24420;DHT22;12599;52.426;13.330;2022-09-13T13:26:47;19.00;99.90
24420;DHT22;12599;52.426;13.330;2022-09-13T13:32:03;19.10;99.90
24420;DHT22;12599;52.426;13.330;2022-09-13T13:34:36;19.20;99.90
24420;DHT22;12599;52.426;13.330;2022-09-13T13:39:44;19.40;99.90
24420;DHT22;12599;52.426;13.330;2022-09-13T13:42:25;19.40;99.90
24420;DHT22;12599;52.426;13.330;2022-09-13T13:50:07;19.50;99.90
24420;DHT22;12599;52.426;13.330;2022-09-13T13:52:39;19.50;99.90
24420;DHT22;12599;52.426;13.330;2022-09-13T13:55:28;19.60;99.90
24420;DHT22;12599;52.426;13.330;2022-09-13T13:58:02;19.70;99.90
24420;DHT22;12599;52.426;13.330;2022-09-13T14:00:32;19.90;99.90
24420;DHT22;12599;52.426;13.330;2022-09-13T14:08:37;20.30;99.90
24420;DHT22;12599;52.426;13.330;2022-09-13T14:20:12;20.40;99.90
24420;DHT22;12599;52.426;13.330;2022-09-13T14:22:44;20.40;99.90
24420;DHT22;12599;52.426;13.330;2022-09-13T14:27:46;20.50;99.90
24420;DHT22;12599;52.426;13.330;2022-09-13T14:30:23;20.60;99.90
24420;DHT22;12599;52.426;13.330;2022-09-13T14:32:53;20.30;99.90
24420;DHT22;12599;52.426;13.330;2022-09-13T14:35:35;20.20;99.90
24420;DHT22;12599;52.426;13.330;2022-09-13T14:40:48;20.10;99.90
24420;DHT22;12599;52.426;13.330;2022-09-13T14:43:16;20.30;99.90
24420;DHT22;12599;52.426;13.330;2022-09-13T14:45:45;20.20;99.90
24420;DHT22;12599;52.426;13.330;2022-09-13T14:48:14;20.10;99.90
24420;DHT22;12599;52.426;13.330;2022-09-13T14:51:06;19.30;99.90
24420;DHT22;12599;52.426;13.330;2022-09-13T14:53:33;20.10;99.90
24420;DHT22;12599;52.426;13.330;2022-09-13T14:56:06;21.30;99.90
24420;DHT22;12599;52.426;13.330;2022-09-13T14:58:50;20.20;99.90
24420;DHT22;12599;52.426;13.330;2022-09-13T15:01:25;20.30;99.90
24420;DHT22;12599;52.426;13.330;2022-09-13T15:03:55;20.30;99.90
24420;DHT22;12599;52.426;13.330;2022-09-13T15:06:36;20.50;99.90
24420;DHT22;12599;52.426;13.330;2022-09-13T15:14:35;20.60;99.90
24420;DHT22;12599;52.426;13.330;2022-09-13T15:19:36;20.70;99.90
24420;DHT22;12599;52.426;13.330;2022-09-13T15:22:23;20.70;99.90
24420;DHT22;12599;52.426;13.330;2022-09-13T15:24:57;20.50;99.90
24420;DHT22;12599;52.426;13.330;2022-09-13T15:29:58;20.50;99.90
24420;DHT22;12599;52.426;13.330;2022-09-13T15:32:42;20.30;99.90
24420;DHT22;12599;52.426;13.330;2022-09-13T15:38:01;20.30;99.90
24420;DHT22;12599;52.426;13.330;2022-09-13T15:40:28;20.30;99.90
24420;DHT22;12599;52.426;13.330;2022-09-13T15:42:54;20.40;99.90
24420;DHT22;12599;52.426;13.330;2022-09-13T15:45:21;20.30;99.90
24420;DHT22;12599;52.426;13.330;2022-09-13T15:47:48;20.30;99.90
24420;DHT22;12599;52.426;13.330;2022-09-13T15:50:23;20.10;99.90
24420;DHT22;12599;52.426;13.330;2022-09-13T15:52:51;20.10;99.90
24420;DHT22;12599;52.426;13.330;2022-09-13T15:55:17;20.10;99.90
24420;DHT22;12599;52.426;13.330;2022-09-13T15:57:43;20.10;99.90
24420;DHT22;12599;52.426;13.330;2022-09-13T16:00:24;20.00;99.90
24420;DHT22;12599;52.426;13.330;2022-09-13T16:02:51;19.90;99.90
24420;DHT22;12599;52.426;13.330;2022-09-13T16:05:17;19.80;99.90
24420;DHT22;12599;52.426;13.330;2022-09-13T16:07:43;19.70;99.90
24420;DHT22;12599;52.426;13.330;2022-09-13T16:10:16;19.70;99.90
24420;DHT22;12599;52.426;13.330;2022-09-13T16:12:42;19.70;99.90
24420;DHT22;12599;52.426;13.330;2022-09-13T16:15:08;20.50;99.90
24420;DHT22;12599;52.426;13.330;2022-09-13T16:17:34;19.60;99.90
24420;DHT22;12599;52.426;13.330;2022-09-13T16:19:59;19.50;99.90
24420;DHT22;12599;52.426;13.330;2022-09-13T16:22:25;19.50;99.90
24420;DHT22;12599;52.426;13.330;2022-09-13T16:24:51;19.60;99.90
24420;DHT22;12599;52.426;13.330;2022-09-13T16:27:18;19.50;99.90
24420;DHT22;12599;52.426;13.330;2022-09-13T16:29:45;19.40;99.90
24420;DHT22;12599;52.426;13.330;2022-09-13T16:32:11;19.40;99.90
24420;DHT22;12599;52.426;13.330;2022-09-13T16:34:37;19.30;99.90
24420;DHT22;12599;52.426;13.330;2022-09-13T16:37:03;19.30;99.90
24420;DHT22;12599;52.426;13.330;2022-09-13T16:39:29;19.30;99.90
24420;DHT22;12599;52.426;13.330;2022-09-13T16:41:55;19.30;99.90
24420;DHT22;12599;52.426;13.330;2022-09-13T16:44:21;19.20;99.90
24420;DHT22;12599;52.426;13.330;2022-09-13T16:46:46;19.30;99.90
24420;DHT22;12599;52.426;13.330;2022-09-13T16:49:12;19.20;99.90
24420;DHT22;12599;52.426;13.330;2022-09-13T16:51:38;19.10;99.90
24420;DHT22;12599;52.426;13.330;2022-09-13T16:54:04;19.00;99.90
24420;DHT22;12599;52.426;13.330;2022-09-13T16:56:29;19.00;99.90
24420;DHT22;12599;52.426;13.330;2022-09-13T16:58:55;19.00;99.90
24420;DHT22;12599;52.426;13.330;2022-09-13T17:01:26;18.90;99.90
24420;DHT22;12599;52.426;13.330;2022-09-13T17:03:52;18.90;99.90
24420;DHT22;12599;52.426;13.330;2022-09-13T17:06:19;18.80;99.90
24420;DHT22;12599;52.426;13.330;2022-09-13T17:08:54;18.80;99.90
24420;DHT22;12599;52.426;13.330;2022-09-13T17:11:23;18.70;99.90
24420;DHT22;12599;52.426;13.330;2022-09-13T17:13:49;18.70;99.90
24420;DHT22;12599;52.426;13.330;2022-09-13T17:16:24;18.60;99.90
24420;DHT22;12599;52.426;13.330;2022-09-13T17:18:50;18.60;99.90
24420;DHT22;12599;52.426;13.330;2022-09-13T17:21:16;18.40;99.90
24420;DHT22;12599;52.426;13.330;2022-09-13T17:23:42;18.40;99.90
24420;DHT22;12599;52.426;13.330;2022-09-13T17:26:07;18.30;99.90
24420;DHT22;12599;52.426;13.330;2022-09-13T17:28:33;18.30;99.90
24420;DHT22;12599;52.426;13.330;2022-09-13T17:31:00;18.20;99.90
24420;DHT22;12599;52.426;13.330;2022-09-13T17:33:26;18.10;99.90
24420;DHT22;12599;52.426;13.330;2022-09-13T17:36:00;18.10;99.90
24420;DHT22;12599;52.426;13.330;2022-09-13T17:38:26;18.10;99.90
24420;DHT22;12599;52.426;13.330;2022-09-13T17:41:03;18.10;99.90
24420;DHT22;12599;52.426;13.330;2022-09-13T17:43:29;18.20;99.90
24420;DHT22;12599;52.426;13.330;2022-09-13T17:45:55;18.10;99.90
24420;DHT22;12599;52.426;13.330;2022-09-13T17:48:21;18.10;99.90
24420;DHT22;12599;52.426;13.330;2022-09-13T17:50:46;18.00;99.90
24420;DHT22;12599;52.426;13.330;2022-09-13T17:53:12;18.00;99.90
24420;DHT22;12599;52.426;13.330;2022-09-13T17:55:48;17.90;99.90
24420;DHT22;12599;52.426;13.330;2022-09-13T17:58:14;17.90;99.90
24420;DHT22;12599;52.426;13.330;2022-09-13T18:00:41;17.80;99.90
24420;DHT22;12599;52.426;13.330;2022-09-13T18:03:06;17.80;99.90
24420;DHT22;12599;52.426;13.330;2022-09-13T18:05:32;17.70;99.90
24420;DHT22;12599;52.426;13.330;2022-09-13T18:07:57;17.70;99.90
24420;DHT22;12599;52.426;13.330;2022-09-13T18:10:23;17.60;99.90
24420;DHT22;12599;52.426;13.330;2022-09-13T18:12:49;17.60;99.90
24420;DHT22;12599;52.426;13.330;2022-09-13T18:15:15;17.60;99.90
24420;DHT22;12599;52.426;13.330;2022-09-13T18:17:40;17.50;99.90
24420;DHT22;12599;52.426;13.330;2022-09-13T18:20:06;17.40;99.90
24420;DHT22;12599;52.426;13.330;2022-09-13T18:22:32;17.30;99.90
24420;DHT22;12599;52.426;13.330;2022-09-13T18:24:57;17.30;99.90
24420;DHT22;12599;52.426;13.330;2022-09-13T18:27:23;17.20;99.90
24420;DHT22;12599;52.426;13.330;2022-09-13T18:29:48;17.10;99.90
24420;DHT22;12599;52.426;13.330;2022-09-13T18:32:14;17.10;99.90
24420;DHT22;12599;52.426;13.330;2022-09-13T18:34:40;17.10;99.90
24420;DHT22;12599;52.426;13.330;2022-09-13T18:37:06;17.00;99.90
24420;DHT22;12599;52.426;13.330;2022-09-13T18:39:32;17.00;99.90
24420;DHT22;12599;52.426;13.330;2022-09-13T18:41:57;17.00;99.90
24420;DHT22;12599;52.426;13.330;2022-09-13T18:44:24;17.00;99.90